sensor_id;sensor_type;location;lat;lon;timestamp;P1;durP1;ratioP1;P2;durP2;ratioP2
13590;SDS011;6866;50.778;7.206;2023-10-31T00:01:11;1.05;;;0.50;;
13590;SDS011;6866;50.778;7.206;2023-10-31T00:03:36;1.85;;;0.70;;
13590;SDS011;6866;50.778;7.206;2023-10-31T00:06:02;2.33;;;0.60;;
13590;SDS011;6866;50.778;7.206;2023-10-31T00:08:27;1.52;;;0.57;;
13590;SDS011;6866;50.778;7.206;2023-10-31T00:10:53;1.63;;;0.60;;
13590;SDS011;6866;50.778;7.206;2023-10-31T00:13:19;1.95;;;0.70;;
13590;SDS011;6866;50.778;7.206;2023-10-31T00:15:44;2.63;;;1.00;;
13590;SDS011;6866;50.778;7.206;2023-10-31T00:18:10;3.45;;;0.93;;
13590;SDS011;6866;50.778;7.206;2023-10-31T00:20:35;3.20;;;1.00;;
13590;SDS011;6866;50.778;7.206;2023-10-31T00:23:01;3.63;;;1.00;;
13590;SDS011;6866;50.778;7.206;2023-10-31T00:25:26;2.55;;;1.10;;
13590;SDS011;6866;50.778;7.206;2023-10-31T00:27:52;3.20;;;1.60;;
13590;SDS011;6866;50.778;7.206;2023-10-31T00:30:17;3.97;;;1.75;;
13590;SDS011;6866;50.778;7.206;2023-10-31T00:32:43;2.85;;;1.45;;
13590;SDS011;6866;50.778;7.206;2023-10-31T00:35:09;4.32;;;1.70;;
13590;SDS011;6866;50.778;7.206;2023-10-31T00:37:37;3.45;;;1.55;;
13590;SDS011;6866;50.778;7.206;2023-10-31T00:40:05;3.58;;;1.70;;
13590;SDS011;6866;50.778;7.206;2023-10-31T00:42:32;2.83;;;1.20;;
13590;SDS011;6866;50.778;7.206;2023-10-31T00:44:58;3.53;;;1.50;;
13590;SDS011;6866;50.778;7.206;2023-10-31T00:47:24;3.47;;;1.60;;
13590;SDS011;6866;50.778;7.206;2023-10-31T00:49:50;3.15;;;1.17;;
13590;SDS011;6866;50.778;7.206;2023-10-31T00:52:18;2.88;;;1.40;;
13590;SDS011;6866;50.778;7.206;2023-10-31T00:54:43;3.67;;;1.50;;
13590;SDS011;6866;50.778;7.206;2023-10-31T00:57:09;2.33;;;1.40;;
13590;SDS011;6866;50.778;7.206;2023-10-31T00:59:34;3.67;;;1.20;;
13590;SDS011;6866;50.778;7.206;2023-10-31T01:02:00;4.38;;;1.40;;
13590;SDS011;6866;50.778;7.206;2023-10-31T01:04:26;3.30;;;1.23;;
13590;SDS011;6866;50.778;7.206;2023-10-31T01:06:51;4.22;;;0.90;;
13590;SDS011;6866;50.778;7.206;2023-10-31T01:09:17;4.63;;;1.25;;
13590;SDS011;6866;50.778;7.206;2023-10-31T01:11:42;2.60;;;0.90;;
13590;SDS011;6866;50.778;7.206;2023-10-31T01:14:08;3.90;;;1.13;;
13590;SDS011;6866;50.778;7.206;2023-10-31T01:16:34;3.35;;;1.40;;
13590;SDS011;6866;50.778;7.206;2023-10-31T01:18:59;2.05;;;0.80;;
13590;SDS011;6866;50.778;7.206;2023-10-31T01:21:25;3.45;;;1.00;;
13590;SDS011;6866;50.778;7.206;2023-10-31T01:23:50;3.22;;;1.30;;
13590;SDS011;6866;50.778;7.206;2023-10-31T01:26:16;4.72;;;1.58;;
13590;SDS011;6866;50.778;7.206;2023-10-31T01:28:41;2.40;;;0.95;;
13590;SDS011;6866;50.778;7.206;2023-10-31T01:31:07;2.97;;;1.00;;
13590;SDS011;6866;50.778;7.206;2023-10-31T01:33:33;3.10;;;1.13;;
13590;SDS011;6866;50.778;7.206;2023-10-31T01:35:59;3.45;;;1.35;;
13590;SDS011;6866;50.778;7.206;2023-10-31T01:38:24;3.08;;;1.42;;
13590;SDS011;6866;50.778;7.206;2023-10-31T01:40:50;3.70;;;1.13;;
13590;SDS011;6866;50.778;7.206;2023-10-31T01:43:37;4.60;;;1.20;;
13590;SDS011;6866;50.778;7.206;2023-10-31T01:46:03;4.22;;;1.70;;
13590;SDS011;6866;50.778;7.206;2023-10-31T01:48:30;4.03;;;1.20;;
13590;SDS011;6866;50.778;7.206;2023-10-31T01:50:58;5.43;;;1.70;;
13590;SDS011;6866;50.778;7.206;2023-10-31T01:53:25;2.45;;;1.10;;
13590;SDS011;6866;50.778;7.206;2023-10-31T01:55:53;3.75;;;1.17;;
13590;SDS011;6866;50.778;7.206;2023-10-31T01:58:21;3.88;;;1.30;;
13590;SDS011;6866;50.778;7.206;2023-10-31T02:03:28;4.55;;;1.65;;
13590;SDS011;6866;50.778;7.206;2023-10-31T02:05:54;5.03;;;1.40;;
13590;SDS011;6866;50.778;7.206;2023-10-31T02:08:21;4.88;;;1.15;;
13590;SDS011;6866;50.778;7.206;2023-10-31T02:10:46;4.13;;;1.27;;
13590;SDS011;6866;50.778;7.206;2023-10-31T02:13:16;4.20;;;1.17;;
13590;SDS011;6866;50.778;7.206;2023-10-31T02:15:42;4.38;;;1.23;;
13590;SDS011;6866;50.778;7.206;2023-10-31T02:18:08;8.48;;;1.30;;
13590;SDS011;6866;50.778;7.206;2023-10-31T02:20:34;4.72;;;1.33;;
13590;SDS011;6866;50.778;7.206;2023-10-31T02:23:00;3.58;;;1.00;;
13590;SDS011;6866;50.778;7.206;2023-10-31T02:25:27;3.33;;;1.25;;
13590;SDS011;6866;50.778;7.206;2023-10-31T02:27:53;4.25;;;1.20;;
13590;SDS011;6866;50.778;7.206;2023-10-31T02:30:18;4.28;;;1.20;;
13590;SDS011;6866;50.778;7.206;2023-10-31T02:32:44;4.25;;;1.38;;
13590;SDS011;6866;50.778;7.206;2023-10-31T02:35:09;3.88;;;1.20;;
13590;SDS011;6866;50.778;7.206;2023-10-31T02:37:35;4.13;;;1.40;;
13590;SDS011;6866;50.778;7.206;2023-10-31T02:40:01;4.72;;;1.30;;
13590;SDS011;6866;50.778;7.206;2023-10-31T02:42:27;5.00;;;1.42;;
13590;SDS011;6866;50.778;7.206;2023-10-31T02:44:53;3.38;;;1.50;;
13590;SDS011;6866;50.778;7.206;2023-10-31T02:47:18;5.00;;;1.30;;
13590;SDS011;6866;50.778;7.206;2023-10-31T02:49:44;4.90;;;1.40;;
13590;SDS011;6866;50.778;7.206;2023-10-31T02:52:10;4.57;;;1.50;;
13590;SDS011;6866;50.778;7.206;2023-10-31T02:54:35;6.43;;;1.77;;
13590;SDS011;6866;50.778;7.206;2023-10-31T02:57:01;6.22;;;1.65;;
13590;SDS011;6866;50.778;7.206;2023-10-31T02:59:27;7.07;;;1.90;;
13590;SDS011;6866;50.778;7.206;2023-10-31T03:01:53;6.60;;;2.00;;
13590;SDS011;6866;50.778;7.206;2023-10-31T03:04:21;6.95;;;1.45;;
13590;SDS011;6866;50.778;7.206;2023-10-31T03:06:46;6.18;;;2.15;;
13590;SDS011;6866;50.778;7.206;2023-10-31T03:09:12;5.57;;;1.45;;
13590;SDS011;6866;50.778;7.206;2023-10-31T03:11:37;5.20;;;1.60;;
13590;SDS011;6866;50.778;7.206;2023-10-31T03:14:03;5.47;;;1.50;;
13590;SDS011;6866;50.778;7.206;2023-10-31T03:16:28;4.40;;;1.48;;
13590;SDS011;6866;50.778;7.206;2023-10-31T03:18:54;4.28;;;1.42;;
13590;SDS011;6866;50.778;7.206;2023-10-31T03:21:19;5.65;;;1.50;;
13590;SDS011;6866;50.778;7.206;2023-10-31T03:23:48;4.97;;;1.45;;
13590;SDS011;6866;50.778;7.206;2023-10-31T03:26:17;7.35;;;1.70;;
13590;SDS011;6866;50.778;7.206;2023-10-31T03:28:44;5.13;;;1.67;;
13590;SDS011;6866;50.778;7.206;2023-10-31T03:31:10;4.15;;;1.50;;
13590;SDS011;6866;50.778;7.206;2023-10-31T03:33:36;5.07;;;1.75;;
13590;SDS011;6866;50.778;7.206;2023-10-31T03:36:02;4.00;;;1.60;;
13590;SDS011;6866;50.778;7.206;2023-10-31T03:38:28;5.03;;;1.67;;
13590;SDS011;6866;50.778;7.206;2023-10-31T03:40:53;5.35;;;1.83;;
13590;SDS011;6866;50.778;7.206;2023-10-31T03:43:19;5.30;;;1.50;;
13590;SDS011;6866;50.778;7.206;2023-10-31T03:45:47;5.15;;;1.65;;
13590;SDS011;6866;50.778;7.206;2023-10-31T03:48:14;5.88;;;1.65;;
13590;SDS011;6866;50.778;7.206;2023-10-31T03:50:40;5.57;;;1.60;;
13590;SDS011;6866;50.778;7.206;2023-10-31T03:53:06;4.65;;;1.95;;
13590;SDS011;6866;50.778;7.206;2023-10-31T03:55:32;5.80;;;1.90;;
13590;SDS011;6866;50.778;7.206;2023-10-31T03:57:57;8.57;;;2.10;;
13590;SDS011;6866;50.778;7.206;2023-10-31T04:00:23;8.02;;;1.92;;
13590;SDS011;6866;50.778;7.206;2023-10-31T04:02:48;4.38;;;1.48;;
13590;SDS011;6866;50.778;7.206;2023-10-31T04:05:14;4.85;;;1.58;;
13590;SDS011;6866;50.778;7.206;2023-10-31T04:07:40;9.45;;;1.50;;
13590;SDS011;6866;50.778;7.206;2023-10-31T04:10:05;5.22;;;1.50;;
13590;SDS011;6866;50.778;7.206;2023-10-31T04:12:32;6.72;;;1.52;;
13590;SDS011;6866;50.778;7.206;2023-10-31T04:14:58;4.60;;;1.40;;
13590;SDS011;6866;50.778;7.206;2023-10-31T04:17:23;4.13;;;1.45;;
13590;SDS011;6866;50.778;7.206;2023-10-31T04:19:49;6.60;;;1.42;;
13590;SDS011;6866;50.778;7.206;2023-10-31T04:22:14;7.90;;;1.40;;
13590;SDS011;6866;50.778;7.206;2023-10-31T04:24:40;5.95;;;1.40;;
13590;SDS011;6866;50.778;7.206;2023-10-31T04:27:06;4.05;;;1.17;;
13590;SDS011;6866;50.778;7.206;2023-10-31T04:29:32;6.28;;;1.30;;
13590;SDS011;6866;50.778;7.206;2023-10-31T04:31:58;3.83;;;1.52;;
13590;SDS011;6866;50.778;7.206;2023-10-31T04:34:23;3.58;;;1.40;;
13590;SDS011;6866;50.778;7.206;2023-10-31T04:36:49;3.33;;;1.10;;
13590;SDS011;6866;50.778;7.206;2023-10-31T04:39:14;5.10;;;1.25;;
13590;SDS011;6866;50.778;7.206;2023-10-31T04:41:40;3.92;;;1.05;;
13590;SDS011;6866;50.778;7.206;2023-10-31T04:44:05;4.30;;;1.33;;
13590;SDS011;6866;50.778;7.206;2023-10-31T04:46:31;4.20;;;1.17;;
13590;SDS011;6866;50.778;7.206;2023-10-31T04:48:57;4.15;;;1.30;;
13590;SDS011;6866;50.778;7.206;2023-10-31T04:51:22;3.67;;;1.08;;
13590;SDS011;6866;50.778;7.206;2023-10-31T04:53:48;3.97;;;1.20;;
13590;SDS011;6866;50.778;7.206;2023-10-31T04:56:14;5.00;;;1.17;;
13590;SDS011;6866;50.778;7.206;2023-10-31T04:58:41;6.93;;;1.10;;
13590;SDS011;6866;50.778;7.206;2023-10-31T05:01:10;3.03;;;0.80;;
13590;SDS011;6866;50.778;7.206;2023-10-31T05:03:38;3.67;;;1.08;;
13590;SDS011;6866;50.778;7.206;2023-10-31T05:06:04;3.17;;;1.20;;
13590;SDS011;6866;50.778;7.206;2023-10-31T05:08:31;3.03;;;1.10;;
13590;SDS011;6866;50.778;7.206;2023-10-31T05:10:57;2.67;;;0.90;;
13590;SDS011;6866;50.778;7.206;2023-10-31T05:13:23;5.95;;;1.17;;
13590;SDS011;6866;50.778;7.206;2023-10-31T05:15:48;5.30;;;1.20;;
13590;SDS011;6866;50.778;7.206;2023-10-31T05:18:14;2.90;;;1.10;;
13590;SDS011;6866;50.778;7.206;2023-10-31T05:20:40;4.65;;;1.27;;
13590;SDS011;6866;50.778;7.206;2023-10-31T05:23:05;2.85;;;0.98;;
13590;SDS011;6866;50.778;7.206;2023-10-31T05:25:32;3.08;;;0.95;;
13590;SDS011;6866;50.778;7.206;2023-10-31T05:27:57;3.85;;;0.93;;
13590;SDS011;6866;50.778;7.206;2023-10-31T05:30:24;4.10;;;1.20;;
13590;SDS011;6866;50.778;7.206;2023-10-31T05:32:50;5.25;;;1.00;;
13590;SDS011;6866;50.778;7.206;2023-10-31T05:35:16;6.78;;;1.10;;
13590;SDS011;6866;50.778;7.206;2023-10-31T05:37:41;3.65;;;1.00;;
13590;SDS011;6866;50.778;7.206;2023-10-31T05:40:07;3.22;;;1.00;;
13590;SDS011;6866;50.778;7.206;2023-10-31T05:42:33;2.65;;;1.00;;
13590;SDS011;6866;50.778;7.206;2023-10-31T05:44:59;2.22;;;1.08;;
13590;SDS011;6866;50.778;7.206;2023-10-31T05:47:24;2.70;;;0.90;;
13590;SDS011;6866;50.778;7.206;2023-10-31T05:49:50;1.85;;;0.90;;
13590;SDS011;6866;50.778;7.206;2023-10-31T05:52:15;2.55;;;1.10;;
13590;SDS011;6866;50.778;7.206;2023-10-31T05:54:41;3.50;;;1.17;;
13590;SDS011;6866;50.778;7.206;2023-10-31T05:57:06;2.67;;;0.98;;
13590;SDS011;6866;50.778;7.206;2023-10-31T05:59:32;3.28;;;1.10;;
13590;SDS011;6866;50.778;7.206;2023-10-31T06:01:58;4.13;;;1.00;;
13590;SDS011;6866;50.778;7.206;2023-10-31T06:04:23;3.40;;;1.00;;
13590;SDS011;6866;50.778;7.206;2023-10-31T06:06:50;2.45;;;1.00;;
13590;SDS011;6866;50.778;7.206;2023-10-31T06:09:15;2.05;;;0.90;;
13590;SDS011;6866;50.778;7.206;2023-10-31T06:11:41;5.68;;;1.10;;
13590;SDS011;6866;50.778;7.206;2023-10-31T06:14:08;3.70;;;1.20;;
13590;SDS011;6866;50.778;7.206;2023-10-31T06:16:39;2.47;;;0.73;;
13590;SDS011;6866;50.778;7.206;2023-10-31T06:19:09;2.10;;;0.95;;
13590;SDS011;6866;50.778;7.206;2023-10-31T06:21:35;2.83;;;0.82;;
13590;SDS011;6866;50.778;7.206;2023-10-31T06:24:01;4.07;;;1.13;;
13590;SDS011;6866;50.778;7.206;2023-10-31T06:26:27;4.45;;;1.10;;
13590;SDS011;6866;50.778;7.206;2023-10-31T06:28:53;2.25;;;0.95;;
13590;SDS011;6866;50.778;7.206;2023-10-31T06:31:18;2.70;;;1.02;;
13590;SDS011;6866;50.778;7.206;2023-10-31T06:33:44;2.47;;;0.95;;
13590;SDS011;6866;50.778;7.206;2023-10-31T06:36:09;2.65;;;1.00;;
13590;SDS011;6866;50.778;7.206;2023-10-31T06:38:35;3.55;;;1.08;;
13590;SDS011;6866;50.778;7.206;2023-10-31T06:41:00;4.53;;;1.10;;
13590;SDS011;6866;50.778;7.206;2023-10-31T06:43:26;2.28;;;1.00;;
13590;SDS011;6866;50.778;7.206;2023-10-31T06:45:53;3.40;;;1.05;;
13590;SDS011;6866;50.778;7.206;2023-10-31T06:48:18;2.63;;;0.95;;
13590;SDS011;6866;50.778;7.206;2023-10-31T06:50:44;3.83;;;1.30;;
13590;SDS011;6866;50.778;7.206;2023-10-31T06:53:09;3.65;;;1.02;;
13590;SDS011;6866;50.778;7.206;2023-10-31T06:55:35;3.13;;;1.08;;
13590;SDS011;6866;50.778;7.206;2023-10-31T06:58:01;3.53;;;1.10;;
13590;SDS011;6866;50.778;7.206;2023-10-31T07:00:27;5.55;;;1.15;;
13590;SDS011;6866;50.778;7.206;2023-10-31T07:02:53;2.58;;;1.20;;
13590;SDS011;6866;50.778;7.206;2023-10-31T07:05:18;6.15;;;1.60;;
13590;SDS011;6866;50.778;7.206;2023-10-31T07:07:45;9.98;;;1.40;;
13590;SDS011;6866;50.778;7.206;2023-10-31T07:10:11;4.68;;;1.20;;
13590;SDS011;6866;50.778;7.206;2023-10-31T07:12:36;3.28;;;1.30;;
13590;SDS011;6866;50.778;7.206;2023-10-31T07:15:02;3.50;;;1.30;;
13590;SDS011;6866;50.778;7.206;2023-10-31T07:17:28;4.70;;;1.38;;
13590;SDS011;6866;50.778;7.206;2023-10-31T07:19:55;4.90;;;1.48;;
13590;SDS011;6866;50.778;7.206;2023-10-31T07:22:20;4.68;;;1.27;;
13590;SDS011;6866;50.778;7.206;2023-10-31T07:24:47;2.67;;;1.30;;
13590;SDS011;6866;50.778;7.206;2023-10-31T07:27:13;4.72;;;1.50;;
13590;SDS011;6866;50.778;7.206;2023-10-31T07:29:39;4.35;;;1.40;;
13590;SDS011;6866;50.778;7.206;2023-10-31T07:32:05;4.50;;;1.35;;
13590;SDS011;6866;50.778;7.206;2023-10-31T07:34:31;4.05;;;1.20;;
13590;SDS011;6866;50.778;7.206;2023-10-31T07:36:57;3.05;;;1.30;;
13590;SDS011;6866;50.778;7.206;2023-10-31T07:39:23;3.17;;;1.23;;
13590;SDS011;6866;50.778;7.206;2023-10-31T07:41:48;3.58;;;1.33;;
13590;SDS011;6866;50.778;7.206;2023-10-31T07:44:14;4.95;;;1.30;;
13590;SDS011;6866;50.778;7.206;2023-10-31T07:46:39;4.30;;;1.70;;
13590;SDS011;6866;50.778;7.206;2023-10-31T07:49:05;3.95;;;1.50;;
13590;SDS011;6866;50.778;7.206;2023-10-31T07:51:31;4.18;;;1.42;;
13590;SDS011;6866;50.778;7.206;2023-10-31T07:53:56;5.53;;;1.70;;
13590;SDS011;6866;50.778;7.206;2023-10-31T07:56:23;3.90;;;1.40;;
13590;SDS011;6866;50.778;7.206;2023-10-31T07:58:50;3.63;;;1.30;;
13590;SDS011;6866;50.778;7.206;2023-10-31T08:01:16;4.40;;;1.40;;
13590;SDS011;6866;50.778;7.206;2023-10-31T08:03:43;4.03;;;1.42;;
13590;SDS011;6866;50.778;7.206;2023-10-31T08:06:10;2.90;;;1.45;;
13590;SDS011;6866;50.778;7.206;2023-10-31T08:08:36;4.43;;;1.80;;
13590;SDS011;6866;50.778;7.206;2023-10-31T08:11:01;5.13;;;1.50;;
13590;SDS011;6866;50.778;7.206;2023-10-31T08:13:28;5.22;;;1.60;;
13590;SDS011;6866;50.778;7.206;2023-10-31T08:15:54;8.15;;;1.60;;
13590;SDS011;6866;50.778;7.206;2023-10-31T08:18:21;4.82;;;1.60;;
13590;SDS011;6866;50.778;7.206;2023-10-31T08:20:48;2.97;;;1.48;;
13590;SDS011;6866;50.778;7.206;2023-10-31T08:23:15;5.32;;;1.80;;
13590;SDS011;6866;50.778;7.206;2023-10-31T08:25:41;6.18;;;1.70;;
13590;SDS011;6866;50.778;7.206;2023-10-31T08:28:07;3.63;;;1.50;;
13590;SDS011;6866;50.778;7.206;2023-10-31T08:30:32;5.10;;;1.50;;
13590;SDS011;6866;50.778;7.206;2023-10-31T08:32:58;3.25;;;1.50;;
13590;SDS011;6866;50.778;7.206;2023-10-31T08:35:24;4.78;;;1.20;;
13590;SDS011;6866;50.778;7.206;2023-10-31T08:37:50;5.53;;;1.58;;
13590;SDS011;6866;50.778;7.206;2023-10-31T08:40:15;5.15;;;1.60;;
13590;SDS011;6866;50.778;7.206;2023-10-31T08:42:41;4.50;;;1.52;;
13590;SDS011;6866;50.778;7.206;2023-10-31T08:45:06;3.40;;;1.50;;
13590;SDS011;6866;50.778;7.206;2023-10-31T08:47:33;3.80;;;1.35;;
13590;SDS011;6866;50.778;7.206;2023-10-31T08:49:58;3.47;;;1.50;;
13590;SDS011;6866;50.778;7.206;2023-10-31T08:52:24;2.88;;;1.52;;
13590;SDS011;6866;50.778;7.206;2023-10-31T08:54:50;4.38;;;1.80;;
13590;SDS011;6866;50.778;7.206;2023-10-31T08:57:15;4.15;;;1.50;;
13590;SDS011;6866;50.778;7.206;2023-10-31T08:59:41;5.13;;;1.88;;
13590;SDS011;6866;50.778;7.206;2023-10-31T09:02:06;6.32;;;1.80;;
13590;SDS011;6866;50.778;7.206;2023-10-31T09:04:32;3.92;;;1.70;;
13590;SDS011;6866;50.778;7.206;2023-10-31T09:06:57;3.72;;;1.80;;
13590;SDS011;6866;50.778;7.206;2023-10-31T09:09:23;4.85;;;1.83;;
13590;SDS011;6866;50.778;7.206;2023-10-31T09:11:48;6.97;;;2.13;;
13590;SDS011;6866;50.778;7.206;2023-10-31T09:14:14;8.45;;;2.13;;
13590;SDS011;6866;50.778;7.206;2023-10-31T09:16:39;6.53;;;2.00;;
13590;SDS011;6866;50.778;7.206;2023-10-31T09:19:05;6.80;;;1.73;;
13590;SDS011;6866;50.778;7.206;2023-10-31T09:21:31;4.47;;;1.67;;
13590;SDS011;6866;50.778;7.206;2023-10-31T09:23:56;4.30;;;1.40;;
13590;SDS011;6866;50.778;7.206;2023-10-31T09:26:22;4.25;;;1.45;;
13590;SDS011;6866;50.778;7.206;2023-10-31T09:28:48;5.60;;;1.55;;
13590;SDS011;6866;50.778;7.206;2023-10-31T09:31:16;5.18;;;1.70;;
13590;SDS011;6866;50.778;7.206;2023-10-31T09:33:43;5.43;;;1.20;;
13590;SDS011;6866;50.778;7.206;2023-10-31T09:36:09;3.42;;;1.23;;
13590;SDS011;6866;50.778;7.206;2023-10-31T09:38:35;4.38;;;1.30;;
13590;SDS011;6866;50.778;7.206;2023-10-31T09:41:00;3.83;;;1.30;;
13590;SDS011;6866;50.778;7.206;2023-10-31T09:43:26;4.32;;;1.50;;
13590;SDS011;6866;50.778;7.206;2023-10-31T09:45:52;4.55;;;1.50;;
13590;SDS011;6866;50.778;7.206;2023-10-31T09:48:18;2.88;;;1.30;;
13590;SDS011;6866;50.778;7.206;2023-10-31T09:50:47;2.97;;;1.10;;
13590;SDS011;6866;50.778;7.206;2023-10-31T09:53:14;5.03;;;1.38;;
13590;SDS011;6866;50.778;7.206;2023-10-31T09:55:40;3.72;;;1.27;;
13590;SDS011;6866;50.778;7.206;2023-10-31T09:58:07;3.72;;;1.48;;
13590;SDS011;6866;50.778;7.206;2023-10-31T10:00:33;5.95;;;1.60;;
13590;SDS011;6866;50.778;7.206;2023-10-31T10:02:59;4.25;;;1.27;;
13590;SDS011;6866;50.778;7.206;2023-10-31T10:05:24;4.60;;;1.60;;
13590;SDS011;6866;50.778;7.206;2023-10-31T10:07:52;2.78;;;1.17;;
13590;SDS011;6866;50.778;7.206;2023-10-31T10:10:20;8.10;;;1.60;;
13590;SDS011;6866;50.778;7.206;2023-10-31T10:12:46;4.40;;;1.10;;
13590;SDS011;6866;50.778;7.206;2023-10-31T10:15:11;4.90;;;1.13;;
13590;SDS011;6866;50.778;7.206;2023-10-31T10:17:37;4.38;;;1.50;;
13590;SDS011;6866;50.778;7.206;2023-10-31T10:20:13;3.75;;;1.20;;
13590;SDS011;6866;50.778;7.206;2023-10-31T10:22:39;3.97;;;1.15;;
13590;SDS011;6866;50.778;7.206;2023-10-31T10:25:07;4.50;;;1.25;;
13590;SDS011;6866;50.778;7.206;2023-10-31T10:27:40;4.60;;;1.55;;
13590;SDS011;6866;50.778;7.206;2023-10-31T10:30:07;5.45;;;1.10;;
13590;SDS011;6866;50.778;7.206;2023-10-31T10:32:33;2.90;;;1.20;;
13590;SDS011;6866;50.778;7.206;2023-10-31T10:34:59;5.70;;;1.20;;
13590;SDS011;6866;50.778;7.206;2023-10-31T10:37:26;3.70;;;0.95;;
13590;SDS011;6866;50.778;7.206;2023-10-31T10:39:52;5.20;;;1.38;;
13590;SDS011;6866;50.778;7.206;2023-10-31T10:42:26;4.75;;;1.38;;
13590;SDS011;6866;50.778;7.206;2023-10-31T10:45:10;4.57;;;1.30;;
13590;SDS011;6866;50.778;7.206;2023-10-31T10:47:39;6.05;;;1.55;;
13590;SDS011;6866;50.778;7.206;2023-10-31T10:50:07;4.93;;;1.20;;
13590;SDS011;6866;50.778;7.206;2023-10-31T10:52:35;6.15;;;1.55;;
13590;SDS011;6866;50.778;7.206;2023-10-31T10:55:23;5.25;;;1.50;;
13590;SDS011;6866;50.778;7.206;2023-10-31T10:58:01;4.30;;;1.50;;
13590;SDS011;6866;50.778;7.206;2023-10-31T11:00:52;5.00;;;1.30;;
13590;SDS011;6866;50.778;7.206;2023-10-31T11:03:20;5.30;;;1.70;;
13590;SDS011;6866;50.778;7.206;2023-10-31T11:05:47;5.72;;;1.35;;
13590;SDS011;6866;50.778;7.206;2023-10-31T11:08:13;5.20;;;1.80;;
13590;SDS011;6866;50.778;7.206;2023-10-31T11:10:39;5.47;;;1.80;;
13590;SDS011;6866;50.778;7.206;2023-10-31T11:13:06;4.85;;;1.58;;
13590;SDS011;6866;50.778;7.206;2023-10-31T11:15:32;5.38;;;1.55;;
13590;SDS011;6866;50.778;7.206;2023-10-31T11:17:58;6.45;;;1.73;;
13590;SDS011;6866;50.778;7.206;2023-10-31T11:20:25;6.82;;;2.05;;
13590;SDS011;6866;50.778;7.206;2023-10-31T11:22:54;7.60;;;2.50;;
13590;SDS011;6866;50.778;7.206;2023-10-31T11:25:22;5.75;;;2.17;;
13590;SDS011;6866;50.778;7.206;2023-10-31T11:27:51;6.95;;;2.15;;
13590;SDS011;6866;50.778;7.206;2023-10-31T11:30:21;6.57;;;2.28;;
13590;SDS011;6866;50.778;7.206;2023-10-31T11:32:53;7.80;;;2.00;;
13590;SDS011;6866;50.778;7.206;2023-10-31T11:35:21;5.93;;;2.00;;
13590;SDS011;6866;50.778;7.206;2023-10-31T11:37:47;4.07;;;1.40;;
13590;SDS011;6866;50.778;7.206;2023-10-31T11:40:15;6.20;;;2.25;;
13590;SDS011;6866;50.778;7.206;2023-10-31T11:42:51;7.13;;;1.98;;
13590;SDS011;6866;50.778;7.206;2023-10-31T11:45:29;5.38;;;2.25;;
13590;SDS011;6866;50.778;7.206;2023-10-31T11:47:58;5.32;;;1.95;;
13590;SDS011;6866;50.778;7.206;2023-10-31T11:50:24;7.93;;;2.47;;
13590;SDS011;6866;50.778;7.206;2023-10-31T11:53:00;3.88;;;1.30;;
13590;SDS011;6866;50.778;7.206;2023-10-31T11:55:27;4.57;;;1.17;;
13590;SDS011;6866;50.778;7.206;2023-10-31T11:57:53;3.15;;;1.02;;
13590;SDS011;6866;50.778;7.206;2023-10-31T12:00:22;4.47;;;1.45;;
13590;SDS011;6866;50.778;7.206;2023-10-31T12:03:06;4.45;;;1.75;;
13590;SDS011;6866;50.778;7.206;2023-10-31T12:05:32;6.00;;;1.58;;
13590;SDS011;6866;50.778;7.206;2023-10-31T12:07:57;3.50;;;1.70;;
13590;SDS011;6866;50.778;7.206;2023-10-31T12:12:50;4.72;;;1.75;;
13590;SDS011;6866;50.778;7.206;2023-10-31T12:15:16;4.45;;;1.48;;
13590;SDS011;6866;50.778;7.206;2023-10-31T12:17:41;4.45;;;1.40;;
13590;SDS011;6866;50.778;7.206;2023-10-31T12:20:07;4.63;;;1.38;;
13590;SDS011;6866;50.778;7.206;2023-10-31T12:22:34;6.03;;;1.27;;
13590;SDS011;6866;50.778;7.206;2023-10-31T12:25:01;6.25;;;1.60;;
13590;SDS011;6866;50.778;7.206;2023-10-31T12:27:41;4.32;;;1.10;;
13590;SDS011;6866;50.778;7.206;2023-10-31T12:30:11;4.22;;;1.30;;
13590;SDS011;6866;50.778;7.206;2023-10-31T12:32:37;4.45;;;1.33;;
13590;SDS011;6866;50.778;7.206;2023-10-31T12:35:05;5.85;;;1.60;;
13590;SDS011;6866;50.778;7.206;2023-10-31T12:37:31;4.45;;;1.20;;
13590;SDS011;6866;50.778;7.206;2023-10-31T12:39:57;4.85;;;1.42;;
13590;SDS011;6866;50.778;7.206;2023-10-31T12:42:23;4.30;;;1.40;;
13590;SDS011;6866;50.778;7.206;2023-10-31T12:44:54;4.83;;;1.30;;
13590;SDS011;6866;50.778;7.206;2023-10-31T12:47:23;5.05;;;1.45;;
13590;SDS011;6866;50.778;7.206;2023-10-31T12:50:04;3.58;;;1.33;;
13590;SDS011;6866;50.778;7.206;2023-10-31T12:52:47;3.38;;;1.25;;
13590;SDS011;6866;50.778;7.206;2023-10-31T12:55:17;4.75;;;1.35;;
13590;SDS011;6866;50.778;7.206;2023-10-31T12:57:44;3.75;;;1.00;;
13590;SDS011;6866;50.778;7.206;2023-10-31T13:00:14;5.13;;;1.42;;
13590;SDS011;6866;50.778;7.206;2023-10-31T13:02:41;5.10;;;1.23;;
13590;SDS011;6866;50.778;7.206;2023-10-31T13:05:13;6.53;;;1.23;;
13590;SDS011;6866;50.778;7.206;2023-10-31T13:07:47;5.57;;;1.50;;
13590;SDS011;6866;50.778;7.206;2023-10-31T13:10:15;5.40;;;1.30;;
13590;SDS011;6866;50.778;7.206;2023-10-31T13:12:45;4.93;;;1.38;;
13590;SDS011;6866;50.778;7.206;2023-10-31T13:15:12;6.35;;;1.23;;
13590;SDS011;6866;50.778;7.206;2023-10-31T13:17:39;7.70;;;1.40;;
13590;SDS011;6866;50.778;7.206;2023-10-31T13:20:06;6.65;;;1.25;;
13590;SDS011;6866;50.778;7.206;2023-10-31T13:22:34;6.25;;;1.48;;
13590;SDS011;6866;50.778;7.206;2023-10-31T13:25:00;5.53;;;1.40;;
13590;SDS011;6866;50.778;7.206;2023-10-31T13:27:29;5.15;;;1.50;;
13590;SDS011;6866;50.778;7.206;2023-10-31T13:30:02;6.38;;;1.40;;
13590;SDS011;6866;50.778;7.206;2023-10-31T13:32:29;5.82;;;1.40;;
13590;SDS011;6866;50.778;7.206;2023-10-31T13:34:55;6.75;;;1.40;;
13590;SDS011;6866;50.778;7.206;2023-10-31T13:37:20;6.03;;;1.50;;
13590;SDS011;6866;50.778;7.206;2023-10-31T13:39:46;5.22;;;1.40;;
13590;SDS011;6866;50.778;7.206;2023-10-31T13:42:12;5.85;;;1.70;;
13590;SDS011;6866;50.778;7.206;2023-10-31T13:44:39;7.10;;;1.40;;
13590;SDS011;6866;50.778;7.206;2023-10-31T13:47:05;5.30;;;1.30;;
13590;SDS011;6866;50.778;7.206;2023-10-31T13:49:31;4.45;;;1.35;;
13590;SDS011;6866;50.778;7.206;2023-10-31T13:51:57;7.32;;;1.50;;
13590;SDS011;6866;50.778;7.206;2023-10-31T13:54:22;5.80;;;1.33;;
13590;SDS011;6866;50.778;7.206;2023-10-31T13:56:48;4.78;;;1.20;;
13590;SDS011;6866;50.778;7.206;2023-10-31T13:59:14;5.10;;;1.20;;
13590;SDS011;6866;50.778;7.206;2023-10-31T14:01:40;4.65;;;1.52;;
13590;SDS011;6866;50.778;7.206;2023-10-31T14:04:06;5.75;;;1.50;;
13590;SDS011;6866;50.778;7.206;2023-10-31T14:06:33;7.82;;;1.50;;
13590;SDS011;6866;50.778;7.206;2023-10-31T14:08:59;7.05;;;1.40;;
13590;SDS011;6866;50.778;7.206;2023-10-31T14:11:29;7.03;;;1.60;;
13590;SDS011;6866;50.778;7.206;2023-10-31T14:13:55;6.35;;;1.40;;
13590;SDS011;6866;50.778;7.206;2023-10-31T14:16:25;6.03;;;1.58;;
13590;SDS011;6866;50.778;7.206;2023-10-31T14:18:50;7.00;;;1.45;;
13590;SDS011;6866;50.778;7.206;2023-10-31T14:21:16;8.95;;;1.77;;
13590;SDS011;6866;50.778;7.206;2023-10-31T14:23:41;4.93;;;1.60;;
13590;SDS011;6866;50.778;7.206;2023-10-31T14:26:07;6.22;;;1.60;;
13590;SDS011;6866;50.778;7.206;2023-10-31T14:28:32;6.63;;;1.60;;
13590;SDS011;6866;50.778;7.206;2023-10-31T14:30:58;7.32;;;1.63;;
13590;SDS011;6866;50.778;7.206;2023-10-31T14:33:24;6.53;;;1.50;;
13590;SDS011;6866;50.778;7.206;2023-10-31T14:35:50;6.15;;;1.52;;
13590;SDS011;6866;50.778;7.206;2023-10-31T14:38:15;5.63;;;1.40;;
13590;SDS011;6866;50.778;7.206;2023-10-31T14:40:41;8.20;;;1.35;;
13590;SDS011;6866;50.778;7.206;2023-10-31T14:43:06;5.47;;;2.10;;
13590;SDS011;6866;50.778;7.206;2023-10-31T14:45:32;7.57;;;1.77;;
13590;SDS011;6866;50.778;7.206;2023-10-31T14:47:57;7.28;;;1.90;;
13590;SDS011;6866;50.778;7.206;2023-10-31T14:50:23;6.47;;;1.83;;
13590;SDS011;6866;50.778;7.206;2023-10-31T14:52:48;9.20;;;1.90;;
13590;SDS011;6866;50.778;7.206;2023-10-31T14:55:14;5.55;;;1.50;;
13590;SDS011;6866;50.778;7.206;2023-10-31T14:57:40;6.15;;;1.50;;
13590;SDS011;6866;50.778;7.206;2023-10-31T15:00:06;5.57;;;1.40;;
13590;SDS011;6866;50.778;7.206;2023-10-31T15:02:37;4.07;;;1.40;;